McCarran, Nevada
Current Conditions -  °F | °C
As of 12:55 PM on Sunday 21 Dec 2014 (Local Time) from KRNO Reporting Station
Broken Clouds Broken Clouds  
Wind Chill: 61°   Ceiling: 20000
Heat Index: 61°   Visibility: 10mi
Dew Point: 40°   Wind: 23mph
Humidity: 46%   Direction: 290°WNW
Pressure: 30.18"   Gusts: 33mph
Location:  39.5403°N, 119.672°W
Report Text: KRNO 212055Z 29020G29KT 10SM SCT060 SCT150 BKN200 BKN250 16/04 A3018 RMK AO2 PK WND 30034/2005 SLP188 ACSL DSNT N E SE NW MTN TOPS OBSCD DSNT SW T01610044 55010
Loading
Personal Weather Stations






























Interactive Weather Map New forecast layout! Learn more

10-Day Weather Forecast

Advertisements
Track Severe Weather on mobile